sensor_id;sensor_type;location;lat;lon;timestamp;temperature;humidity
56428;DHT22;42331;53.578;9.760;2023-09-08T05:38:50;18.40;99.90
56428;DHT22;42331;53.578;9.760;2023-09-08T18:11:58;22.90;99.90
56428;DHT22;42331;53.578;9.760;2023-09-08T18:14:28;22.60;99.90
56428;DHT22;42331;53.578;9.760;2023-09-08T18:16:59;22.60;99.90
56428;DHT22;42331;53.578;9.760;2023-09-08T18:19:32;22.60;99.90
56428;DHT22;42331;53.578;9.760;2023-09-08T18:22:06;22.50;99.90
56428;DHT22;42331;53.578;9.760;2023-09-08T18:24:37;22.40;99.90
56428;DHT22;42331;53.578;9.760;2023-09-08T18:27:08;22.30;99.90
56428;DHT22;42331;53.578;9.760;2023-09-08T18:29:38;22.30;99.90
56428;DHT22;42331;53.578;9.760;2023-09-08T18:34:41;22.20;99.90
56428;DHT22;42331;53.578;9.760;2023-09-08T18:37:13;22.10;99.90
56428;DHT22;42331;53.578;9.760;2023-09-08T18:39:44;22.00;99.90
56428;DHT22;42331;53.578;9.760;2023-09-08T18:42:15;21.90;99.90
56428;DHT22;42331;53.578;9.760;2023-09-08T18:44:45;21.90;99.90
56428;DHT22;42331;53.578;9.760;2023-09-08T18:47:16;21.80;99.90
56428;DHT22;42331;53.578;9.760;2023-09-08T18:49:47;21.70;99.90
56428;DHT22;42331;53.578;9.760;2023-09-08T18:52:17;21.70;99.90
56428;DHT22;42331;53.578;9.760;2023-09-08T18:54:48;21.70;99.90
56428;DHT22;42331;53.578;9.760;2023-09-08T18:59:51;21.80;99.90
56428;DHT22;42331;53.578;9.760;2023-09-08T19:02:21;21.80;99.90
56428;DHT22;42331;53.578;9.760;2023-09-08T19:04:52;21.80;99.90
56428;DHT22;42331;53.578;9.760;2023-09-08T19:07:23;21.70;99.90
56428;DHT22;42331;53.578;9.760;2023-09-08T19:09:53;21.70;99.90
56428;DHT22;42331;53.578;9.760;2023-09-08T19:12:25;21.50;99.90
56428;DHT22;42331;53.578;9.760;2023-09-08T19:14:55;21.40;99.90
56428;DHT22;42331;53.578;9.760;2023-09-08T19:17:26;21.30;99.90
56428;DHT22;42331;53.578;9.760;2023-09-08T19:19:56;21.30;99.90
56428;DHT22;42331;53.578;9.760;2023-09-08T19:22:27;21.20;99.90
56428;DHT22;42331;53.578;9.760;2023-09-08T19:24:58;21.10;99.90
56428;DHT22;42331;53.578;9.760;2023-09-08T19:27:28;21.10;99.90
56428;DHT22;42331;53.578;9.760;2023-09-08T19:30:00;21.10;99.90
56428;DHT22;42331;53.578;9.760;2023-09-08T19:32:31;21.00;99.90
56428;DHT22;42331;53.578;9.760;2023-09-08T19:35:02;21.00;99.90
56428;DHT22;42331;53.578;9.760;2023-09-08T19:37:33;20.90;99.90
56428;DHT22;42331;53.578;9.760;2023-09-08T19:40:05;20.90;99.90
56428;DHT22;42331;53.578;9.760;2023-09-08T19:42:36;20.80;99.90
56428;DHT22;42331;53.578;9.760;2023-09-08T19:45:07;20.80;99.90
56428;DHT22;42331;53.578;9.760;2023-09-08T19:47:38;20.70;99.90
56428;DHT22;42331;53.578;9.760;2023-09-08T19:50:09;20.70;99.90
56428;DHT22;42331;53.578;9.760;2023-09-08T19:52:40;20.60;99.90
56428;DHT22;42331;53.578;9.760;2023-09-08T19:55:11;20.60;99.90
56428;DHT22;42331;53.578;9.760;2023-09-08T19:57:41;20.50;99.90
56428;DHT22;42331;53.578;9.760;2023-09-08T20:00:12;20.40;99.90
56428;DHT22;42331;53.578;9.760;2023-09-08T20:02:44;20.30;99.90
56428;DHT22;42331;53.578;9.760;2023-09-08T20:05:15;20.20;99.90
56428;DHT22;42331;53.578;9.760;2023-09-08T20:07:46;20.20;99.90
56428;DHT22;42331;53.578;9.760;2023-09-08T20:10:17;20.10;99.90
56428;DHT22;42331;53.578;9.760;2023-09-08T20:12:49;20.10;99.90
56428;DHT22;42331;53.578;9.760;2023-09-08T20:15:20;20.00;99.90
56428;DHT22;42331;53.578;9.760;2023-09-08T20:17:50;20.00;99.90
56428;DHT22;42331;53.578;9.760;2023-09-08T20:20:22;19.90;99.90
56428;DHT22;42331;53.578;9.760;2023-09-08T20:22:53;19.90;99.90
56428;DHT22;42331;53.578;9.760;2023-09-08T20:25:23;19.80;99.90
56428;DHT22;42331;53.578;9.760;2023-09-08T20:27:54;19.80;99.90
56428;DHT22;42331;53.578;9.760;2023-09-08T20:30:25;19.80;99.90
56428;DHT22;42331;53.578;9.760;2023-09-08T20:32:55;19.80;99.90
56428;DHT22;42331;53.578;9.760;2023-09-08T20:35:26;19.70;99.90
56428;DHT22;42331;53.578;9.760;2023-09-08T20:37:57;19.60;99.90
56428;DHT22;42331;53.578;9.760;2023-09-08T20:40:27;19.60;99.90
56428;DHT22;42331;53.578;9.760;2023-09-08T20:42:58;19.60;99.90
56428;DHT22;42331;53.578;9.760;2023-09-08T20:45:29;19.60;99.90
56428;DHT22;42331;53.578;9.760;2023-09-08T20:48:00;19.50;99.90
56428;DHT22;42331;53.578;9.760;2023-09-08T20:50:30;19.50;99.90
56428;DHT22;42331;53.578;9.760;2023-09-08T20:53:01;19.50;99.90
56428;DHT22;42331;53.578;9.760;2023-09-08T20:55:32;19.50;99.90
56428;DHT22;42331;53.578;9.760;2023-09-08T20:58:02;19.50;99.90
56428;DHT22;42331;53.578;9.760;2023-09-08T21:00:33;19.50;99.90
56428;DHT22;42331;53.578;9.760;2023-09-08T21:03:04;19.40;99.90
56428;DHT22;42331;53.578;9.760;2023-09-08T21:05:35;19.40;99.90
56428;DHT22;42331;53.578;9.760;2023-09-08T21:08:06;19.30;99.90
56428;DHT22;42331;53.578;9.760;2023-09-08T21:10:36;19.30;99.90
56428;DHT22;42331;53.578;9.760;2023-09-08T21:13:07;19.30;99.90
56428;DHT22;42331;53.578;9.760;2023-09-08T21:15:38;19.20;99.90
56428;DHT22;42331;53.578;9.760;2023-09-08T21:18:09;19.20;99.90
56428;DHT22;42331;53.578;9.760;2023-09-08T21:20:40;19.20;99.90
56428;DHT22;42331;53.578;9.760;2023-09-08T21:23:11;19.20;99.90
56428;DHT22;42331;53.578;9.760;2023-09-08T21:25:42;19.10;99.90
56428;DHT22;42331;53.578;9.760;2023-09-08T21:28:12;19.00;99.90
56428;DHT22;42331;53.578;9.760;2023-09-08T21:30:43;19.00;99.90
56428;DHT22;42331;53.578;9.760;2023-09-08T21:33:14;19.00;99.90
56428;DHT22;42331;53.578;9.760;2023-09-08T21:35:45;19.00;99.90
56428;DHT22;42331;53.578;9.760;2023-09-08T21:38:16;19.00;99.90
56428;DHT22;42331;53.578;9.760;2023-09-08T21:40:46;19.00;99.90
56428;DHT22;42331;53.578;9.760;2023-09-08T21:43:17;19.00;99.90
56428;DHT22;42331;53.578;9.760;2023-09-08T21:45:48;19.00;99.90
56428;DHT22;42331;53.578;9.760;2023-09-08T21:48:21;19.00;99.90
56428;DHT22;42331;53.578;9.760;2023-09-08T21:50:52;18.90;99.90
56428;DHT22;42331;53.578;9.760;2023-09-08T21:53:22;18.90;99.90
56428;DHT22;42331;53.578;9.760;2023-09-08T21:55:53;18.90;99.90
56428;DHT22;42331;53.578;9.760;2023-09-08T21:58:24;18.80;99.90
56428;DHT22;42331;53.578;9.760;2023-09-08T22:00:54;18.80;99.90
56428;DHT22;42331;53.578;9.760;2023-09-08T22:03:26;18.80;99.90
56428;DHT22;42331;53.578;9.760;2023-09-08T22:05:57;18.80;99.90
56428;DHT22;42331;53.578;9.760;2023-09-08T22:08:27;18.80;99.90
56428;DHT22;42331;53.578;9.760;2023-09-08T22:11:05;18.80;99.90
56428;DHT22;42331;53.578;9.760;2023-09-08T22:13:36;18.70;99.90
56428;DHT22;42331;53.578;9.760;2023-09-08T22:16:07;18.70;99.90
56428;DHT22;42331;53.578;9.760;2023-09-08T22:18:38;18.70;99.90
56428;DHT22;42331;53.578;9.760;2023-09-08T22:21:09;18.60;99.90
56428;DHT22;42331;53.578;9.760;2023-09-08T22:23:40;18.60;99.90
56428;DHT22;42331;53.578;9.760;2023-09-08T22:26:15;18.60;99.90
56428;DHT22;42331;53.578;9.760;2023-09-08T22:28:49;18.60;99.90
56428;DHT22;42331;53.578;9.760;2023-09-08T22:31:20;18.50;99.90
56428;DHT22;42331;53.578;9.760;2023-09-08T22:33:51;18.50;99.90
56428;DHT22;42331;53.578;9.760;2023-09-08T22:36:21;18.50;99.90
56428;DHT22;42331;53.578;9.760;2023-09-08T22:38:52;18.60;99.90
56428;DHT22;42331;53.578;9.760;2023-09-08T22:41:23;18.80;99.90
56428;DHT22;42331;53.578;9.760;2023-09-08T22:43:55;18.80;99.90
56428;DHT22;42331;53.578;9.760;2023-09-08T22:46:26;18.80;99.90
56428;DHT22;42331;53.578;9.760;2023-09-08T22:48:56;18.90;99.90
56428;DHT22;42331;53.578;9.760;2023-09-08T22:51:27;19.00;99.90
56428;DHT22;42331;53.578;9.760;2023-09-08T22:53:58;19.00;99.90
56428;DHT22;42331;53.578;9.760;2023-09-08T22:56:28;18.90;99.90
56428;DHT22;42331;53.578;9.760;2023-09-08T22:58:59;18.90;99.90
56428;DHT22;42331;53.578;9.760;2023-09-08T23:01:30;19.00;99.90
56428;DHT22;42331;53.578;9.760;2023-09-08T23:04:00;18.90;99.90
56428;DHT22;42331;53.578;9.760;2023-09-08T23:06:31;18.90;99.90
56428;DHT22;42331;53.578;9.760;2023-09-08T23:09:02;18.80;99.90
56428;DHT22;42331;53.578;9.760;2023-09-08T23:11:33;18.80;99.90
56428;DHT22;42331;53.578;9.760;2023-09-08T23:14:04;18.70;99.90
56428;DHT22;42331;53.578;9.760;2023-09-08T23:16:34;18.70;99.90
56428;DHT22;42331;53.578;9.760;2023-09-08T23:19:05;18.70;99.90
56428;DHT22;42331;53.578;9.760;2023-09-08T23:21:37;18.70;99.90
56428;DHT22;42331;53.578;9.760;2023-09-08T23:24:08;18.60;99.90
56428;DHT22;42331;53.578;9.760;2023-09-08T23:26:39;18.60;99.90
56428;DHT22;42331;53.578;9.760;2023-09-08T23:29:10;18.60;99.90
56428;DHT22;42331;53.578;9.760;2023-09-08T23:31:40;18.50;99.90
56428;DHT22;42331;53.578;9.760;2023-09-08T23:34:11;18.50;99.90
56428;DHT22;42331;53.578;9.760;2023-09-08T23:36:43;18.50;99.90
56428;DHT22;42331;53.578;9.760;2023-09-08T23:39:13;18.50;99.90
56428;DHT22;42331;53.578;9.760;2023-09-08T23:41:45;18.50;99.90
56428;DHT22;42331;53.578;9.760;2023-09-08T23:44:16;18.40;99.90
56428;DHT22;42331;53.578;9.760;2023-09-08T23:46:46;18.40;99.90
56428;DHT22;42331;53.578;9.760;2023-09-08T23:49:17;18.40;99.90
56428;DHT22;42331;53.578;9.760;2023-09-08T23:51:48;18.30;99.90
56428;DHT22;42331;53.578;9.760;2023-09-08T23:54:19;18.30;99.90
56428;DHT22;42331;53.578;9.760;2023-09-08T23:56:49;18.30;99.90
56428;DHT22;42331;53.578;9.760;2023-09-08T23:59:20;18.30;99.90
